Time;durP1;ratioP1;P1;durP2;ratioP2;P2;SDS_P1;SDS_P2;PMS_P1;PMS_P2;Temp;Humidity;BMP_temperature;BMP_pressure;BME280_temperature;BME280_humidity;BME280_pressure;Samples;Min_cycle;Max_cycle;Signal;HPM_P1;HPM_P2
2023/02/20 00:00:08;;;;;;;14.18;7.80;;;;;;;5.59;100.00;102430.66;2616440;31;20042;-60
2023/02/20 00:02:37;;;;;;;14.18;8.07;;;;;;;5.64;100.00;102422.44;2615553;36;20046;-55
2023/02/20 00:05:08;;;;;;;13.40;8.35;;;;;;;5.65;100.00;102423.31;2615419;31;20040;-55
2023/02/20 00:07:39;;;;;;;15.60;8.35;;;;;;;5.55;100.00;102415.69;2633680;36;20042;-54
2023/02/20 00:10:09;;;;;;;15.75;8.73;;;;;;;5.58;100.00;102401.31;2615633;36;20562;-57
2023/02/20 00:12:37;;;;;;;16.80;8.60;;;;;;;5.60;100.00;102404.81;2616683;36;20041;-56
2023/02/20 00:15:06;;;;;;;16.63;8.50;;;;;;;5.59;100.00;102398.59;2616057;36;20045;-55
2023/02/20 00:17:35;;;;;;;20.02;10.10;;;;;;;5.66;100.00;102390.31;2615998;36;20295;-56
2023/02/20 00:20:04;;;;;;;17.17;9.83;;;;;;;5.71;100.00;102393.66;2615577;36;20042;-55
2023/02/20 00:22:32;;;;;;;17.77;10.32;;;;;;;5.78;100.00;102393.31;2616448;36;20302;-58
2023/02/20 00:25:03;;;;;;;18.77;9.43;;;;;;;5.85;100.00;102390.38;2616349;36;20049;-55
2023/02/20 00:27:31;;;;;;;20.85;9.98;;;;;;;5.91;100.00;102385.63;2616655;36;20423;-54
2023/02/20 00:30:00;;;;;;;19.58;9.27;;;;;;;5.95;100.00;102375.69;2616267;31;20041;-50
2023/02/20 00:32:28;;;;;;;17.65;9.98;;;;;;;5.97;100.00;102358.66;2615096;36;20536;-58
2023/02/20 00:34:56;;;;;;;17.77;10.03;;;;;;;6.06;100.00;102372.53;2615752;36;20030;-56
2023/02/20 00:37:26;;;;;;;19.10;10.27;;;;;;;6.14;100.00;102378.44;2616047;36;20038;-53
2023/02/20 00:39:55;;;;;;;16.98;9.45;;;;;;;6.19;100.00;102378.22;2616611;36;20042;-52
2023/02/20 00:42:26;;;;;;;18.80;9.60;;;;;;;6.13;100.00;102366.00;2615730;31;20535;-56
2023/02/20 00:44:54;;;;;;;22.10;10.88;;;;;;;6.27;100.00;102366.22;2616396;36;20041;-51
2023/02/20 00:47:22;;;;;;;19.45;9.88;;;;;;;6.19;100.00;102357.69;2616207;36;20586;-55
2023/02/20 00:49:50;;;;;;;20.05;9.90;;;;;;;6.09;100.00;102356.38;2615637;36;20551;-51
2023/02/20 00:52:22;;;;;;;18.35;9.55;;;;;;;6.17;100.00;102364.91;2615352;36;20041;-54
2023/02/20 00:54:50;;;;;;;23.05;10.15;;;;;;;6.11;100.00;102355.38;2615835;36;20038;-54
2023/02/20 00:57:18;;;;;;;21.27;10.60;;;;;;;6.12;100.00;102345.53;2615340;36;20034;-53
2023/02/20 00:59:50;;;;;;;24.58;10.93;;;;;;;6.21;100.00;102329.06;2615930;36;20034;-56
2023/02/20 01:02:18;;;;;;;20.02;10.48;;;;;;;6.15;100.00;102329.34;2616166;36;20447;-58
2023/02/20 01:04:47;;;;;;;23.42;10.43;;;;;;;6.21;100.00;102330.88;2615166;36;20038;-58
2023/02/20 01:07:15;;;;;;;21.88;10.23;;;;;;;6.17;100.00;102316.78;2615932;36;20038;-55
2023/02/20 01:09:43;;;;;;;19.80;10.13;;;;;;;6.10;100.00;102308.19;2615751;36;20037;-55
2023/02/20 01:12:12;;;;;;;17.98;9.27;;;;;;;6.12;100.00;102308.09;2615496;36;20045;-53
2023/02/20 01:14:40;;;;;;;22.25;10.10;;;;;;;6.02;100.00;102288.97;2616314;36;20117;-54
2023/02/20 01:17:11;;;;;;;22.83;11.43;;;;;;;6.04;100.00;102284.41;2616000;36;20038;-54
2023/02/20 01:19:41;;;;;;;20.83;10.40;;;;;;;6.06;100.00;102287.00;2614811;36;20581;-55
2023/02/20 01:22:09;;;;;;;22.02;11.02;;;;;;;5.95;100.00;102274.97;2616242;36;20460;-57
2023/02/20 01:24:37;;;;;;;24.20;10.30;;;;;;;6.16;100.00;102282.13;2615858;36;20035;-54
2023/02/20 01:27:06;;;;;;;19.27;10.23;;;;;;;6.01;100.00;102281.00;2615779;36;20049;-55
2023/02/20 01:29:34;;;;;;;19.67;10.43;;;;;;;5.92;100.00;102285.81;2615502;36;20046;-52
2023/02/20 01:32:03;;;;;;;23.00;11.77;;;;;;;5.99;100.00;102277.53;2615984;36;20039;-52
2023/02/20 01:34:34;;;;;;;25.67;12.20;;;;;;;6.02;100.00;102280.97;2614866;36;20053;-52
2023/02/20 01:37:02;;;;;;;23.67;11.98;;;;;;;6.03;100.00;102276.47;2616746;31;20027;-50
2023/02/20 01:39:31;;;;;;;23.08;11.38;;;;;;;5.97;100.00;102288.31;2616070;31;20532;-54
2023/02/20 01:42:01;;;;;;;;;;;;;;;5.91;100.00;102293.91;2616089;36;20030;-51
2023/02/20 01:44:31;;;;;;;27.73;11.52;;;;;;;5.95;100.00;102291.03;2615709;36;19939;-57
2023/02/20 01:47:00;;;;;;;24.23;10.93;;;;;;;6.05;100.00;102290.63;2616173;36;20447;-57
2023/02/20 01:49:37;;;;;;;23.50;12.00;;;;;;;5.97;100.00;102282.97;2614977;36;20026;-54
2023/02/20 01:52:11;;;;;;;24.80;12.57;;;;;;;5.94;100.00;102281.25;2615635;36;20026;-52
2023/02/20 01:54:43;;;;;;;20.50;11.32;;;;;;;6.05;100.00;102269.22;2616040;36;20069;-58
2023/02/20 01:57:18;;;;;;;23.25;11.35;;;;;;;5.99;100.00;102274.88;2615739;31;20023;-50
2023/02/20 01:59:47;;;;;;;23.85;13.13;;;;;;;6.00;100.00;102265.94;2615754;31;20039;-51
2023/02/20 02:02:17;;;;;;;22.75;12.73;;;;;;;6.04;100.00;102251.47;2616415;36;20428;-54
2023/02/20 02:04:52;;;;;;;27.23;12.73;;;;;;;6.06;100.00;102244.25;2615937;54;20073;-53
2023/02/20 02:07:21;;;;;;;24.40;12.68;;;;;;;6.07;100.00;102246.00;2615750;36;20138;-54
2023/02/20 02:09:55;;;;;;;23.00;12.87;;;;;;;5.99;100.00;102237.47;2615731;36;20030;-53
2023/02/20 02:12:23;;;;;;;23.52;12.00;;;;;;;6.10;100.00;102230.66;2616641;36;20062;-56
2023/02/20 02:14:52;;;;;;;27.13;13.23;;;;;;;6.02;100.00;102226.63;2616691;36;20041;-53
2023/02/20 02:17:59;;;;;;;23.08;12.60;;;;;;;6.10;100.00;102236.00;2615588;36;20042;-56
2023/02/20 02:21:02;;;;;;;26.05;13.63;;;;;;;6.12;100.00;102236.81;2615678;36;20034;-55
2023/02/20 02:24:03;;;;;;;25.45;13.07;;;;;;;6.24;100.00;102237.16;2616784;31;20030;-54
2023/02/20 02:26:58;;;;;;;24.02;13.98;;;;;;;6.16;100.00;102225.97;2616575;36;20443;-54
2023/02/20 02:29:54;;;;;;;27.85;14.27;;;;;;;6.09;100.00;102228.06;2616664;36;20038;-53
2023/02/20 02:32:45;;;;;;;28.25;14.40;;;;;;;6.07;100.00;102225.47;2615100;36;20030;-54
2023/02/20 02:35:54;;;;;;;31.85;14.98;;;;;;;6.23;100.00;102222.06;2616141;36;20045;-56
2023/02/20 02:38:31;;;;;;;33.15;16.92;;;;;;;6.28;100.00;102234.25;2615441;31;20416;-55
2023/02/20 02:41:08;;;;;;;37.38;17.15;;;;;;;6.34;100.00;102224.22;2616869;31;20039;-52
2023/02/20 02:43:44;;;;;;;34.40;15.95;;;;;;;6.40;100.00;102218.56;2616491;36;20058;-55
2023/02/20 02:46:22;;;;;;;29.58;16.10;;;;;;;6.39;100.00;102219.47;2616327;31;20053;-59
2023/02/20 02:48:55;;;;;;;33.78;16.23;;;;;;;6.43;100.00;102226.41;2615161;36;20038;-53
2023/02/20 02:51:27;;;;;;;37.83;18.52;;;;;;;6.45;100.00;102211.19;2616099;36;20026;-51
2023/02/20 02:54:10;;;;;;;45.63;18.33;;;;;;;6.52;100.00;102215.25;2616182;36;20439;-52
2023/02/20 02:56:40;;;;;;;41.95;18.35;;;;;;;6.59;100.00;102210.47;2615303;36;20034;-52
2023/02/20 02:59:13;;;;;;;34.75;17.95;;;;;;;6.62;100.00;102203.16;2616052;36;20058;-51
2023/02/20 03:01:45;;;;;;;37.75;19.35;;;;;;;6.67;100.00;102192.25;2615290;36;20027;-54
2023/02/20 03:04:22;;;;;;;35.05;18.33;;;;;;;6.59;100.00;102191.75;2615790;36;20034;-52
2023/02/20 03:06:54;;;;;;;35.22;19.55;;;;;;;6.66;100.00;102186.00;2616045;36;20041;-52
2023/02/20 03:09:28;;;;;;;47.75;20.52;;;;;;;6.58;100.00;102190.91;2615507;36;20038;-52
2023/02/20 03:12:00;;;;;;;41.50;20.55;;;;;;;6.66;100.00;102191.38;2616552;36;20435;-53
2023/02/20 03:17:28;;;;;;;49.35;21.67;;;;;;;6.75;100.00;102189.19;2615416;36;20040;-52
2023/02/20 03:20:00;;;;;;;42.75;21.85;;;;;;;6.83;100.00;102184.28;2616327;31;20491;-55
2023/02/20 03:22:32;;;;;;;46.40;21.33;;;;;;;6.89;100.00;102188.44;2614883;36;20022;-55
2023/02/20 03:25:08;;;;;;;47.83;21.13;;;;;;;6.97;100.00;102187.09;2615096;36;20046;-53
2023/02/20 03:27:39;;;;;;;47.35;20.83;;;;;;;7.13;100.00;102178.28;2616003;36;20034;-52
2023/02/20 03:30:13;;;;;;;44.58;22.98;;;;;;;7.17;100.00;102179.88;2615671;31;20038;-53
2023/02/20 03:43:37;;;;;;;60.30;23.90;;;;;;;7.27;100.00;102182.91;2615670;31;20034;-53
2023/02/20 03:46:11;;;;;;;64.47;25.13;;;;;;;7.23;100.00;102168.81;2615261;36;20053;-54
2023/02/20 03:48:45;;;;;;;59.90;24.33;;;;;;;7.35;100.00;102165.47;2616246;36;20038;-55
2023/02/20 03:51:14;;;;;;;60.38;23.92;;;;;;;7.35;100.00;102157.44;2616616;36;20034;-55
2023/02/20 03:53:44;;;;;;;64.18;24.88;;;;;;;7.36;100.00;102169.00;2616363;36;20598;-52
2023/02/20 03:56:18;;;;;;;52.10;24.52;;;;;;;7.36;100.00;102163.66;2615672;36;20043;-55
2023/02/20 03:58:51;;;;;;;61.60;26.02;;;;;;;7.34;100.00;102162.88;2615812;36;20035;-55
2023/02/20 04:01:23;;;;;;;58.55;26.75;;;;;;;7.38;100.00;102156.41;2615716;36;20034;-53
2023/02/20 04:03:53;;;;;;;61.97;25.27;;;;;;;7.45;100.00;102147.09;2615743;36;20114;-54
2023/02/20 04:06:26;;;;;;;49.85;24.85;;;;;;;7.47;100.00;102144.31;2616018;36;20043;-55
2023/02/20 04:09:01;;;;;;;52.78;25.33;;;;;;;7.43;100.00;102142.75;2616124;36;20042;-54
2023/02/20 04:11:39;;;;;;;63.65;25.38;;;;;;;7.46;100.00;102145.25;2616073;36;20027;-53
2023/02/20 04:14:09;;;;;;;53.13;25.00;;;;;;;7.50;100.00;102144.16;2615628;36;20045;-54
2023/02/20 04:16:43;;;;;;;58.75;25.80;;;;;;;7.46;100.00;102137.22;2615780;36;20053;-55
2023/02/20 04:19:12;;;;;;;55.75;23.45;;;;;;;7.54;100.00;102140.38;2615464;36;20061;-52
2023/02/20 04:21:43;;;;;;;60.90;26.48;;;;;;;7.51;100.00;102140.53;2615832;36;20035;-55
2023/02/20 04:24:17;;;;;;;64.78;25.30;;;;;;;7.51;100.00;102136.03;2616105;36;20031;-53
2023/02/20 04:26:48;;;;;;;53.15;25.70;;;;;;;7.51;100.00;102132.50;2616736;31;20103;-54
2023/02/20 04:29:17;;;;;;;54.35;25.48;;;;;;;7.56;100.00;102124.19;2616011;36;20042;-55
2023/02/20 04:31:45;;;;;;;50.85;23.83;;;;;;;7.56;100.00;102124.19;2615360;31;20026;-56
2023/02/20 04:34:13;;;;;;;49.53;22.95;;;;;;;7.61;100.00;102125.69;2615562;36;20034;-57
2023/02/20 04:36:42;;;;;;;55.23;24.43;;;;;;;7.64;100.00;102114.78;2615742;36;20045;-56
2023/02/20 04:39:10;;;;;;;52.90;23.42;;;;;;;7.67;100.00;102137.84;2616185;36;20287;-52
2023/02/20 04:41:38;;;;;;;54.78;22.67;;;;;;;7.62;100.00;102124.72;2615863;36;20038;-58
2023/02/20 04:46:50;;;;;;;52.42;22.70;;;;;;;7.69;100.00;102119.88;2615350;36;20551;-54
2023/02/20 04:49:18;;;;;;;57.90;24.35;;;;;;;7.67;100.00;102128.00;2615646;31;20026;-54
2023/02/20 04:51:47;;;;;;;50.42;23.13;;;;;;;7.79;100.00;102125.56;2616034;36;20551;-55
2023/02/20 04:54:15;;;;;;;54.63;22.65;;;;;;;7.85;100.00;102122.56;2615586;36;20038;-54
2023/02/20 04:56:44;;;;;;;53.07;23.20;;;;;;;7.80;100.00;102133.56;2615626;36;20026;-52
2023/02/20 04:59:15;;;;;;;41.75;20.73;;;;;;;7.84;100.00;102115.47;2615913;36;20528;-56
2023/02/20 05:01:46;;;;;;;45.75;21.92;;;;;;;7.83;100.00;102125.34;2615543;36;20583;-53
2023/02/20 05:04:15;;;;;;;51.85;22.10;;;;;;;7.87;100.00;102131.38;2615357;32;20035;-53
2023/02/20 05:06:46;;;;;;;52.00;23.58;;;;;;;7.82;100.00;102128.97;2616086;36;20027;-55
2023/02/20 05:09:14;;;;;;;49.40;21.08;;;;;;;7.87;100.00;102126.00;2615539;36;20049;-53
2023/02/20 05:11:43;;;;;;;52.92;23.90;;;;;;;7.89;100.00;102126.78;2616233;36;20560;-50
2023/02/20 05:14:11;;;;;;;48.42;20.92;;;;;;;8.02;100.00;102116.22;2615541;36;20038;-57
2023/02/20 05:16:47;;;;;;;44.13;20.37;;;;;;;7.93;100.00;102117.63;2615728;36;20555;-55
2023/02/20 05:19:16;;;;;;;45.80;20.30;;;;;;;7.96;100.00;102103.19;2615583;36;20042;-58
2023/02/20 05:24:27;;;;;;;44.17;17.92;;;;;;;7.92;100.00;102097.13;2616011;36;19959;-55
2023/02/20 05:27:02;;;;;;;50.72;20.48;;;;;;;7.91;100.00;102106.13;2615961;36;20133;-55
2023/02/20 05:29:30;;;;;;;44.35;20.67;;;;;;;7.98;100.00;102103.94;2615918;31;20027;-53
2023/02/20 05:32:01;;;;;;;37.28;18.30;;;;;;;8.05;100.00;102114.25;2616054;36;20408;-55
2023/02/20 05:34:30;;;;;;;44.45;19.40;;;;;;;7.95;100.00;102102.31;2615418;31;20030;-55
2023/02/20 05:36:58;;;;;;;42.28;20.17;;;;;;;7.98;100.00;102117.34;2615839;36;20043;-54
2023/02/20 05:39:27;;;;;;;43.72;19.02;;;;;;;8.11;100.00;102117.50;2616130;36;20606;-54
2023/02/20 05:41:55;;;;;;;46.50;20.25;;;;;;;8.03;100.00;102131.38;2616588;36;20027;-50
2023/02/20 05:44:24;;;;;;;41.80;20.77;;;;;;;8.03;100.00;102126.84;2615672;31;20042;-51
2023/02/20 05:46:52;;;;;;;39.13;19.58;;;;;;;8.06;100.00;102118.63;2616037;36;20034;-53
2023/02/20 05:49:24;;;;;;;40.25;19.55;;;;;;;8.04;100.00;102127.75;2616286;36;20551;-54
2023/02/20 05:51:53;;;;;;;50.03;19.60;;;;;;;8.10;100.00;102126.50;2617187;36;20026;-54
2023/02/20 05:54:21;;;;;;;40.83;19.45;;;;;;;8.15;100.00;102121.75;2616983;36;20423;-53
2023/02/20 05:56:50;;;;;;;36.20;17.50;;;;;;;8.14;100.00;102125.38;2616666;36;20034;-53
2023/02/20 05:59:22;;;;;;;38.75;17.58;;;;;;;8.13;100.00;102124.50;2615181;36;20026;-55
2023/02/20 06:01:54;;;;;;;36.90;17.60;;;;;;;8.24;100.00;102113.16;2614738;36;20042;-57
2023/02/20 06:04:32;;;;;;;37.08;19.10;;;;;;;8.19;100.00;102108.06;2615172;36;20034;-54
2023/02/20 06:07:00;;;;;;;44.70;19.30;;;;;;;8.15;100.00;102119.06;2615873;36;20034;-53
2023/02/20 06:09:29;;;;;;;44.65;17.25;;;;;;;8.37;100.00;102115.97;2615971;36;20061;-54
2023/02/20 06:11:58;;;;;;;38.83;16.25;;;;;;;8.32;100.00;102113.56;2616700;36;20038;-54
2023/02/20 06:14:28;;;;;;;35.03;15.85;;;;;;;8.34;100.00;102110.81;2615993;36;20038;-56
2023/02/20 06:16:58;;;;;;;34.67;15.45;;;;;;;8.25;100.00;102102.34;2615989;31;20078;-57
2023/02/20 06:19:29;;;;;;;36.17;15.07;;;;;;;8.28;100.00;102103.13;2616581;36;20468;-56
2023/02/20 06:21:58;;;;;;;33.33;15.18;;;;;;;8.35;100.00;102097.28;2616116;36;20566;-54
2023/02/20 06:24:26;;;;;;;35.70;12.68;;;;;;;8.47;100.00;102089.50;2615889;36;20145;-55
2023/02/20 06:26:55;;;;;;;33.63;13.47;;;;;;;8.40;100.00;102089.81;2616959;31;20069;-53
2023/02/20 06:29:23;;;;;;;33.08;14.07;;;;;;;8.35;100.00;102081.19;2615437;36;20065;-53
2023/02/20 06:31:51;;;;;;;27.40;13.15;;;;;;;8.37;100.00;102086.47;2615573;36;20038;-52
2023/02/20 06:34:22;;;;;;;27.15;12.38;;;;;;;8.46;100.00;102079.72;2615024;31;20026;-51
2023/02/20 06:36:53;;;;;;;26.80;13.05;;;;;;;8.49;100.00;102074.19;2616058;36;20129;-54
2023/02/20 06:39:21;;;;;;;25.98;12.52;;;;;;;8.44;100.00;102074.47;2617260;36;20447;-56
2023/02/20 06:41:49;;;;;;;28.77;11.93;;;;;;;8.51;100.00;102085.66;2615856;36;20049;-53
2023/02/20 06:44:18;;;;;;;23.20;11.52;;;;;;;8.50;100.00;102081.28;2615262;36;20026;-55
2023/02/20 06:46:46;;;;;;;28.90;12.17;;;;;;;8.52;100.00;102095.44;2616204;36;20061;-56
2023/02/20 06:49:14;;;;;;;23.85;11.95;;;;;;;8.44;100.00;102095.03;2615023;36;20031;-55
2023/02/20 06:51:43;;;;;;;26.30;12.60;;;;;;;8.41;100.00;102099.59;2615918;36;20555;-52
2023/02/20 06:54:15;;;;;;;28.38;12.07;;;;;;;8.46;100.00;102098.50;2615090;36;20030;-53
2023/02/20 06:56:43;;;;;;;27.60;11.85;;;;;;;8.32;100.00;102100.16;2617044;36;20425;-56
2023/02/20 06:59:11;;;;;;;22.95;10.77;;;;;;;8.48;100.00;102104.63;2616145;36;20034;-52
2023/02/20 07:01:43;;;;;;;27.63;12.35;;;;;;;8.59;100.00;102104.88;2615894;36;20038;-53
2023/02/20 07:04:17;;;;;;;27.23;10.95;;;;;;;8.59;100.00;102097.66;2614134;36;20073;-51
2023/02/20 07:06:46;;;;;;;22.70;11.23;;;;;;;8.46;100.00;102096.69;2615681;36;20455;-53
2023/02/20 07:09:19;;;;;;;29.63;12.17;;;;;;;8.58;100.00;102098.66;2615099;36;20031;-56
2023/02/20 07:11:49;;;;;;;32.97;12.93;;;;;;;8.57;100.00;102102.28;2615838;36;20048;-55
2023/02/20 07:14:17;;;;;;;24.83;11.60;;;;;;;8.56;100.00;102105.06;2616396;36;20046;-54
2023/02/20 07:16:46;;;;;;;22.90;11.48;;;;;;;8.52;100.00;102114.25;2615745;36;20065;-55
2023/02/20 07:19:14;;;;;;;24.77;12.13;;;;;;;8.50;100.00;102105.44;2616715;36;20093;-50
2023/02/20 07:21:43;;;;;;;24.50;11.07;;;;;;;8.48;100.00;102116.25;2614697;31;20027;-54
2023/02/20 07:24:11;;;;;;;25.65;11.23;;;;;;;8.51;100.00;102132.16;2616334;31;20038;-52
2023/02/20 07:26:42;;;;;;;21.73;12.20;;;;;;;8.51;100.00;102116.06;2616008;36;20133;-53
2023/02/20 07:29:10;;;;;;;27.33;11.77;;;;;;;8.61;100.00;102127.09;2615874;36;20038;-53
2023/02/20 07:31:39;;;;;;;26.57;12.50;;;;;;;8.65;100.00;102125.09;2614600;36;20037;-53
2023/02/20 07:34:07;;;;;;;24.25;11.75;;;;;;;8.51;100.00;102136.66;2615422;36;20034;-55
2023/02/20 07:36:35;;;;;;;23.63;10.75;;;;;;;8.54;100.00;102125.75;2615759;36;20058;-55
2023/02/20 07:39:05;;;;;;;25.17;11.57;;;;;;;8.62;100.00;102126.16;2615886;36;20451;-53
2023/02/20 07:41:34;;;;;;;21.92;10.30;;;;;;;8.63;100.00;102119.84;2615319;36;20045;-55
2023/02/20 07:44:06;;;;;;;26.77;11.85;;;;;;;8.58;100.00;102133.53;2609492;36;20065;-56
2023/02/20 07:46:35;;;;;;;24.35;10.77;;;;;;;8.70;100.00;102126.56;2612281;36;20042;-56
2023/02/20 07:49:04;;;;;;;20.17;10.05;;;;;;;8.60;100.00;102136.13;2615351;36;21158;-54
2023/02/20 07:51:33;;;;;;;20.92;10.73;;;;;;;8.71;100.00;102139.00;2615206;36;20577;-53
2023/02/20 07:54:01;;;;;;;22.40;10.02;;;;;;;8.72;100.00;102142.56;2615613;31;20061;-51
2023/02/20 07:56:30;;;;;;;23.30;10.75;;;;;;;8.79;100.00;102133.19;2614342;36;20030;-52
2023/02/20 07:58:58;;;;;;;23.47;10.63;;;;;;;8.82;100.00;102134.81;2614563;31;20030;-51
2023/02/20 08:01:29;;;;;;;21.27;10.02;;;;;;;8.79;100.00;102129.63;2613092;36;21669;-56
2023/02/20 08:03:57;;;;;;;25.05;10.40;;;;;;;8.77;100.00;102114.50;2612150;36;20038;-55
2023/02/20 08:06:27;;;;;;;22.08;9.75;;;;;;;8.74;100.00;102106.59;2613330;36;20669;-53
2023/02/20 08:08:56;;;;;;;21.60;9.98;;;;;;;8.76;100.00;102112.75;2615163;36;20038;-55
2023/02/20 08:11:25;;;;;;;23.80;10.30;;;;;;;8.87;100.00;102108.56;2615676;36;20038;-52
2023/02/20 08:13:54;;;;;;;;;;;;;;;8.89;100.00;102109.31;2615328;36;20038;-54
2023/02/20 08:16:23;;;;;;;29.77;10.13;;;;;;;8.90;100.00;102106.53;2614898;31;20045;-58
2023/02/20 08:18:54;;;;;;;23.38;9.95;;;;;;;9.01;100.00;102105.00;2614420;36;20532;-53
2023/02/20 08:21:23;;;;;;;22.65;10.02;;;;;;;9.07;100.00;102107.34;2615288;36;20069;-54
2023/02/20 08:23:52;;;;;;;21.27;9.45;;;;;;;9.05;100.00;102099.34;2614842;36;20030;-52
2023/02/20 08:26:20;;;;;;;13.45;7.38;;;;;;;9.10;100.00;102108.00;2614921;36;20074;-53
2023/02/20 08:28:49;;;;;;;18.13;8.82;;;;;;;9.13;100.00;102096.19;2614969;36;20035;-52
2023/02/20 08:31:17;;;;;;;18.65;8.88;;;;;;;9.15;100.00;102094.28;2615395;36;20045;-55
2023/02/20 08:33:46;;;;;;;21.27;9.97;;;;;;;9.13;100.00;102090.84;2615612;36;20564;-54
2023/02/20 08:36:17;;;;;;;20.63;9.63;;;;;;;9.07;100.00;102081.31;2616374;31;20291;-56
2023/02/20 08:38:46;;;;;;;21.08;8.93;;;;;;;9.10;100.00;102091.88;2615657;36;20035;-56
2023/02/20 08:41:15;;;;;;;21.40;9.90;;;;;;;8.98;100.00;102091.78;2615367;31;20026;-56
2023/02/20 08:43:45;;;;;;;25.00;9.93;;;;;;;9.01;100.00;102083.53;2615495;36;20045;-55
2023/02/20 08:46:14;;;;;;;24.25;10.02;;;;;;;9.01;100.00;102087.09;2614563;36;20089;-58
2023/02/20 08:48:43;;;;;;;19.25;8.90;;;;;;;9.12;100.00;102092.63;2615216;36;20042;-54
2023/02/20 08:51:11;;;;;;;23.15;8.73;;;;;;;9.08;100.00;102087.56;2613453;31;20030;-55
2023/02/20 08:53:42;;;;;;;24.48;9.65;;;;;;;9.12;100.00;102091.78;2614511;36;20038;-52
2023/02/20 08:56:11;;;;;;;17.42;9.63;;;;;;;9.05;100.00;102095.81;2614747;36;20467;-56
2023/02/20 08:58:40;;;;;;;22.80;8.68;;;;;;;8.96;100.00;102110.66;2614933;36;20042;-54
2023/02/20 09:01:09;;;;;;;19.50;9.32;;;;;;;9.20;100.00;102112.78;2614607;31;20109;-54
2023/02/20 09:03:40;;;;;;;19.35;9.45;;;;;;;9.21;100.00;102110.00;2614840;36;20041;-55
2023/02/20 09:06:09;;;;;;;20.70;10.00;;;;;;;9.03;100.00;102112.00;2614907;36;20888;-53
2023/02/20 09:08:37;;;;;;;;;;;;;;;9.10;100.00;102104.44;2613795;36;20042;-52
2023/02/20 09:11:09;;;;;;;22.83;9.65;;;;;;;9.09;100.00;102095.50;2613358;36;19954;-55
2023/02/20 09:13:43;;;;;;;20.77;10.07;;;;;;;9.06;100.00;102106.44;2615891;36;20464;-52
2023/02/20 09:16:12;;;;;;;24.08;10.25;;;;;;;9.14;100.00;102113.16;2614965;36;20057;-51
2023/02/20 09:18:40;;;;;;;17.93;9.50;;;;;;;9.19;100.00;102101.19;2615875;36;20039;-54
2023/02/20 09:21:10;;;;;;;18.83;9.85;;;;;;;9.16;100.00;102104.06;2616290;36;20389;-51
2023/02/20 09:23:39;;;;;;;21.77;10.65;;;;;;;9.15;100.00;102101.47;2615732;36;20269;-53
2023/02/20 09:26:10;;;;;;;32.55;11.45;;;;;;;9.16;100.00;102105.88;2613011;31;20038;-54
2023/02/20 09:28:39;;;;;;;24.05;10.30;;;;;;;9.06;100.00;102101.06;2613965;36;20535;-56
2023/02/20 09:31:08;;;;;;;32.45;11.38;;;;;;;9.02;100.00;102096.00;2614473;36;20126;-52
2023/02/20 09:33:36;;;;;;;24.03;11.23;;;;;;;9.09;100.00;102078.53;2613139;36;20554;-54
2023/02/20 09:36:05;;;;;;;20.85;10.82;;;;;;;9.25;100.00;102097.25;2615337;36;20045;-51
2023/02/20 09:38:33;;;;;;;22.30;11.48;;;;;;;9.28;100.00;102115.84;2608833;36;20037;-54
2023/02/20 09:41:02;;;;;;;26.20;11.53;;;;;;;9.23;100.00;102112.59;2613145;36;20123;-52
2023/02/20 09:44:10;;;;;;;25.23;11.70;;;;;;;9.28;100.00;102123.91;2613507;31;20030;-55
2023/02/20 09:46:39;;;;;;;17.77;10.60;;;;;;;9.16;100.00;102112.13;2614360;36;20946;-58
2023/02/20 09:49:16;;;;;;;22.35;11.07;;;;;;;9.24;100.00;102119.69;2613193;36;20062;-53
2023/02/20 09:51:46;;;;;;;22.63;10.52;;;;;;;9.25;100.00;102126.81;2612971;36;20031;-56
2023/02/20 09:54:19;;;;;;;21.05;11.32;;;;;;;9.22;100.00;102127.00;2615320;36;20053;-53
2023/02/20 09:56:52;;;;;;;21.60;10.60;;;;;;;9.23;100.00;102126.91;2614669;36;20030;-58
2023/02/20 09:59:26;;;;;;;18.13;10.75;;;;;;;9.30;100.00;102116.63;2614069;36;21843;-55
2023/02/20 10:01:59;;;;;;;21.08;10.27;;;;;;;9.22;100.00;102110.88;2614152;36;20043;-58
2023/02/20 10:04:33;;;;;;;20.88;11.48;;;;;;;9.16;100.00;102101.38;2614608;36;20069;-56
2023/02/20 10:07:10;;;;;;;20.02;10.75;;;;;;;9.23;100.00;102113.47;2615941;36;20454;-55
2023/02/20 10:09:39;;;;;;;19.40;11.00;;;;;;;9.20;100.00;102091.28;2614720;36;20038;-54
2023/02/20 10:12:15;;;;;;;24.13;10.70;;;;;;;9.28;100.00;102089.00;2613212;36;20065;-50
2023/02/20 10:14:59;;;;;;;24.30;9.90;;;;;;;9.29;100.00;102079.97;2613874;36;20034;-56
2023/02/20 10:17:39;;;;;;;20.15;9.85;;;;;;;9.38;100.00;102095.50;2613991;36;20068;-55
2023/02/20 10:20:16;;;;;;;26.08;10.57;;;;;;;9.36;100.00;102085.81;2614567;36;20431;-54
2023/02/20 10:22:54;;;;;;;20.45;10.38;;;;;;;9.31;100.00;102080.72;2614274;36;20034;-52
2023/02/20 10:25:29;;;;;;;16.83;9.45;;;;;;;9.45;100.00;102099.53;2615099;36;20166;-58
2023/02/20 10:28:04;;;;;;;18.92;9.15;;;;;;;9.48;100.00;102093.06;2615939;31;20038;-52
2023/02/20 10:30:40;;;;;;;22.27;9.20;;;;;;;9.44;100.00;102073.59;2614465;36;20654;-56
2023/02/20 10:33:25;;;;;;;16.48;8.77;;;;;;;9.34;100.00;102077.84;2615381;36;20073;-56
2023/02/20 10:35:58;;;;;;;21.88;8.90;;;;;;;9.41;100.00;102079.19;2615038;36;20033;-56
2023/02/20 10:38:30;;;;;;;18.33;8.60;;;;;;;9.41;100.00;102084.56;2615968;31;20440;-55
2023/02/20 10:41:08;;;;;;;18.25;8.73;;;;;;;9.45;100.00;102069.97;2616261;36;20042;-53
2023/02/20 10:43:42;;;;;;;15.80;7.38;;;;;;;9.55;100.00;102069.38;2615683;36;20034;-58
2023/02/20 10:46:20;;;;;;;12.75;7.95;;;;;;;9.56;100.00;102071.09;2615812;36;20413;-58
2023/02/20 10:48:49;;;;;;;15.70;8.67;;;;;;;9.68;100.00;102070.28;2615159;36;20038;-52
2023/02/20 10:51:21;;;;;;;13.70;8.25;;;;;;;9.55;100.00;102077.44;2615820;36;20038;-55
2023/02/20 10:53:58;;;;;;;18.10;8.27;;;;;;;9.55;100.00;102072.06;2615944;36;20126;-55
2023/02/20 10:56:35;;;;;;;15.73;8.13;;;;;;;9.52;100.00;102070.41;2616123;36;20061;-56
2023/02/20 10:59:08;;;;;;;16.73;8.57;;;;;;;9.55;100.00;102082.81;2615775;36;20027;-57
2023/02/20 11:01:41;;;;;;;19.35;7.32;;;;;;;9.68;100.00;102091.78;2616351;36;20034;-58
2023/02/20 11:04:14;;;;;;;17.13;7.50;;;;;;;9.79;100.00;102100.03;2615526;36;20038;-52
2023/02/20 11:06:46;;;;;;;11.35;7.65;;;;;;;9.76;100.00;102086.78;2616503;31;20041;-54
2023/02/20 11:09:16;;;;;;;12.85;7.88;;;;;;;9.53;100.00;102104.41;2615317;36;20038;-53
2023/02/20 11:11:46;;;;;;;13.50;7.60;;;;;;;9.57;100.00;102113.13;2614521;31;20042;-55
2023/02/20 11:14:16;;;;;;;15.75;8.48;;;;;;;9.61;100.00;102112.84;2614015;36;20038;-59
2023/02/20 11:16:55;;;;;;;13.85;7.07;;;;;;;9.74;100.00;102128.19;2616255;36;20428;-55
2023/02/20 11:19:27;;;;;;;13.60;6.93;;;;;;;9.68;100.00;102121.38;2616082;36;20042;-55
2023/02/20 11:21:56;;;;;;;14.52;7.22;;;;;;;9.61;100.00;102128.97;2616244;36;20034;-56
2023/02/20 11:24:31;;;;;;;13.95;8.20;;;;;;;9.56;100.00;102125.72;2615947;36;20061;-54
2023/02/20 11:27:04;;;;;;;12.63;7.03;;;;;;;9.76;100.00;102116.38;2615256;36;20056;-55
2023/02/20 11:29:43;;;;;;;15.98;7.45;;;;;;;9.80;100.00;102122.41;2614120;36;20035;-54
2023/02/20 11:32:42;;;;;;;13.45;6.97;;;;;;;9.77;100.00;102139.56;2615650;31;20057;-57
2023/02/20 11:35:32;;;;;;;9.65;6.22;;;;;;;9.70;100.00;102127.53;2613507;36;20042;-53
2023/02/20 11:38:20;;;;;;;14.90;6.70;;;;;;;9.78;100.00;102103.69;2614118;36;20057;-54
2023/02/20 11:41:02;;;;;;;15.73;7.38;;;;;;;9.60;100.00;102095.00;2613661;36;20042;-55
2023/02/20 11:43:33;;;;;;;12.15;6.97;;;;;;;9.66;100.00;102099.09;2614382;36;20125;-56
2023/02/20 11:46:10;;;;;;;16.73;7.90;;;;;;;9.59;100.00;102100.47;2614486;31;20042;-52
2023/02/20 11:49:00;;;;;;;16.55;8.30;;;;;;;9.63;100.00;102099.31;2614236;36;20034;-55
2023/02/20 11:51:37;;;;;;;13.27;8.23;;;;;;;9.62;100.00;102081.44;2611016;36;20034;-52